sensor_id;sensor_type;location;lat;lon;timestamp;pressure;altitude;pressure_sealevel;temperature;humidity
15678;BME280;7939;50.814;6.368;2023-03-03T00:00:03;100486.06;;;7.90;51.23
15678;BME280;7939;50.814;6.368;2023-03-03T00:02:31;100486.03;;;7.87;51.21
15678;BME280;7939;50.814;6.368;2023-03-03T00:04:57;100488.56;;;7.87;51.78
15678;BME280;7939;50.814;6.368;2023-03-03T00:07:24;100488.56;;;7.87;51.66
15678;BME280;7939;50.814;6.368;2023-03-03T00:09:50;100498.75;;;7.87;50.43
15678;BME280;7939;50.814;6.368;2023-03-03T00:12:22;100500.38;;;7.85;51.43
15678;BME280;7939;50.814;6.368;2023-03-03T00:14:49;100501.19;;;7.84;50.96
15678;BME280;7939;50.814;6.368;2023-03-03T00:17:20;100496.13;;;7.84;51.06
15678;BME280;7939;50.814;6.368;2023-03-03T00:19:49;100507.13;;;7.83;51.20
15678;BME280;7939;50.814;6.368;2023-03-03T00:22:28;100514.72;;;7.81;50.65
15678;BME280;7939;50.814;6.368;2023-03-03T00:24:58;100512.19;;;7.81;50.52
15678;BME280;7939;50.814;6.368;2023-03-03T00:27:29;100515.56;;;7.80;50.91
15678;BME280;7939;50.814;6.368;2023-03-03T00:29:57;100516.38;;;7.79;50.90
15678;BME280;7939;50.814;6.368;2023-03-03T00:32:26;100512.94;;;7.79;51.74
15678;BME280;7939;50.814;6.368;2023-03-03T00:34:55;100510.38;;;7.77;50.79
15678;BME280;7939;50.814;6.368;2023-03-03T00:37:29;100508.69;;;7.78;51.76
15678;BME280;7939;50.814;6.368;2023-03-03T00:40:21;100501.03;;;7.76;51.26
15678;BME280;7939;50.814;6.368;2023-03-03T00:42:50;100502.72;;;7.76;51.30
15678;BME280;7939;50.814;6.368;2023-03-03T00:45:24;100496.78;;;7.75;51.58
15678;BME280;7939;50.814;6.368;2023-03-03T00:47:52;100507.78;;;7.74;51.86
15678;BME280;7939;50.814;6.368;2023-03-03T00:50:32;100508.59;;;7.73;50.85
15678;BME280;7939;50.814;6.368;2023-03-03T00:53:04;100510.31;;;7.74;51.12
15678;BME280;7939;50.814;6.368;2023-03-03T00:55:32;100514.56;;;7.74;51.79
15678;BME280;7939;50.814;6.368;2023-03-03T00:57:59;100502.59;;;7.71;51.16
15678;BME280;7939;50.814;6.368;2023-03-03T01:00:26;100511.94;;;7.71;51.91
15678;BME280;7939;50.814;6.368;2023-03-03T01:02:52;100505.13;;;7.70;51.78
15678;BME280;7939;50.814;6.368;2023-03-03T01:05:20;100512.72;;;7.68;51.30
15678;BME280;7939;50.814;6.368;2023-03-03T01:07:48;100515.28;;;7.68;50.84
15678;BME280;7939;50.814;6.368;2023-03-03T01:10:15;100508.47;;;7.67;50.96
15678;BME280;7939;50.814;6.368;2023-03-03T01:12:41;100518.59;;;7.66;51.87
15678;BME280;7939;50.814;6.368;2023-03-03T01:15:09;100521.97;;;7.65;51.54
15678;BME280;7939;50.814;6.368;2023-03-03T01:17:36;100516.00;;;7.64;52.05
15678;BME280;7939;50.814;6.368;2023-03-03T01:20:05;100518.44;;;7.60;50.85
15678;BME280;7939;50.814;6.368;2023-03-03T01:22:32;100518.53;;;7.63;50.97
15678;BME280;7939;50.814;6.368;2023-03-03T01:25:00;100526.13;;;7.61;50.89
15678;BME280;7939;50.814;6.368;2023-03-03T01:27:28;100521.84;;;7.60;51.31
15678;BME280;7939;50.814;6.368;2023-03-03T01:29:54;100508.22;;;7.58;51.00
15678;BME280;7939;50.814;6.368;2023-03-03T01:32:21;100521.75;;;7.55;50.77
15678;BME280;7939;50.814;6.368;2023-03-03T01:34:48;100510.75;;;7.56;51.72
15678;BME280;7939;50.814;6.368;2023-03-03T01:37:15;100519.22;;;7.55;51.65
15678;BME280;7939;50.814;6.368;2023-03-03T01:39:41;100519.13;;;7.52;51.78
15678;BME280;7939;50.814;6.368;2023-03-03T01:42:09;100515.75;;;7.53;51.33
15678;BME280;7939;50.814;6.368;2023-03-03T01:44:35;100524.16;;;7.51;51.20
15678;BME280;7939;50.814;6.368;2023-03-03T01:47:04;100525.06;;;7.53;51.75
15678;BME280;7939;50.814;6.368;2023-03-03T01:49:35;100529.25;;;7.51;51.61
15678;BME280;7939;50.814;6.368;2023-03-03T01:52:09;100518.97;;;7.46;50.52
15678;BME280;7939;50.814;6.368;2023-03-03T01:54:41;100521.59;;;7.49;51.38
15678;BME280;7939;50.814;6.368;2023-03-03T01:57:12;100529.16;;;7.48;50.74
15678;BME280;7939;50.814;6.368;2023-03-03T01:59:44;100527.44;;;7.47;51.47
15678;BME280;7939;50.814;6.368;2023-03-03T02:02:11;100527.44;;;7.47;51.29
15678;BME280;7939;50.814;6.368;2023-03-03T02:04:38;100530.81;;;7.46;50.88
15678;BME280;7939;50.814;6.368;2023-03-03T02:07:06;100534.19;;;7.45;51.14
15678;BME280;7939;50.814;6.368;2023-03-03T02:09:40;100539.31;;;7.46;51.23
15678;BME280;7939;50.814;6.368;2023-03-03T02:12:13;100536.75;;;7.46;51.42
15678;BME280;7939;50.814;6.368;2023-03-03T02:14:42;100528.28;;;7.46;50.81
15678;BME280;7939;50.814;6.368;2023-03-03T02:17:09;100527.41;;;7.45;51.30
15678;BME280;7939;50.814;6.368;2023-03-03T02:19:45;100527.41;;;7.45;52.03
15678;BME280;7939;50.814;6.368;2023-03-03T02:22:13;100532.50;;;7.45;51.73
15678;BME280;7939;50.814;6.368;2023-03-03T02:24:46;100540.88;;;7.41;51.58
15678;BME280;7939;50.814;6.368;2023-03-03T02:27:16;100537.47;;;7.41;52.11
15678;BME280;7939;50.814;6.368;2023-03-03T02:29:44;100538.38;;;7.43;51.18
15678;BME280;7939;50.814;6.368;2023-03-03T02:32:10;100541.78;;;7.43;51.04
15678;BME280;7939;50.814;6.368;2023-03-03T02:34:45;100547.63;;;7.39;51.01
15678;BME280;7939;50.814;6.368;2023-03-03T02:37:12;100555.19;;;7.36;51.34
15678;BME280;7939;50.814;6.368;2023-03-03T02:39:38;100546.78;;;7.40;51.24
15678;BME280;7939;50.814;6.368;2023-03-03T02:42:07;100545.16;;;7.42;52.09
15678;BME280;7939;50.814;6.368;2023-03-03T02:44:37;100548.44;;;7.38;52.14
15678;BME280;7939;50.814;6.368;2023-03-03T02:47:04;100553.59;;;7.41;51.31
15678;BME280;7939;50.814;6.368;2023-03-03T02:49:33;100554.38;;;7.39;52.46
15678;BME280;7939;50.814;6.368;2023-03-03T02:52:04;100551.00;;;7.40;52.35
15678;BME280;7939;50.814;6.368;2023-03-03T02:54:31;100556.94;;;7.39;51.54
15678;BME280;7939;50.814;6.368;2023-03-03T02:56:59;100553.50;;;7.37;52.81
15678;BME280;7939;50.814;6.368;2023-03-03T02:59:26;100555.19;;;7.36;52.04
15678;BME280;7939;50.814;6.368;2023-03-03T03:01:56;100552.72;;;7.41;51.84
15678;BME280;7939;50.814;6.368;2023-03-03T03:04:24;100545.06;;;7.39;51.78
15678;BME280;7939;50.814;6.368;2023-03-03T03:06:53;100558.66;;;7.41;51.56
15678;BME280;7939;50.814;6.368;2023-03-03T03:09:21;100552.72;;;7.41;52.31
15678;BME280;7939;50.814;6.368;2023-03-03T03:11:48;100555.34;;;7.42;52.77
15678;BME280;7939;50.814;6.368;2023-03-03T03:14:15;100552.72;;;7.41;52.92
15678;BME280;7939;50.814;6.368;2023-03-03T03:16:42;100554.50;;;7.43;51.97
15678;BME280;7939;50.814;6.368;2023-03-03T03:19:10;100561.22;;;7.41;52.60
15678;BME280;7939;50.814;6.368;2023-03-03T03:21:36;100573.00;;;7.38;52.04
15678;BME280;7939;50.814;6.368;2023-03-03T03:24:04;100570.53;;;7.41;53.04
15678;BME280;7939;50.814;6.368;2023-03-03T03:26:31;100572.19;;;7.39;53.09
15678;BME280;7939;50.814;6.368;2023-03-03T03:28:57;100570.47;;;7.38;52.65
15678;BME280;7939;50.814;6.368;2023-03-03T03:31:24;100566.94;;;7.33;52.94
15678;BME280;7939;50.814;6.368;2023-03-03T03:33:50;100567.59;;;7.25;53.35
15678;BME280;7939;50.814;6.368;2023-03-03T03:36:18;100558.31;;;7.27;52.57
15678;BME280;7939;50.814;6.368;2023-03-03T03:38:45;100570.06;;;7.22;52.61
15678;BME280;7939;50.814;6.368;2023-03-03T03:41:12;100563.53;;;7.32;53.56
15678;BME280;7939;50.814;6.368;2023-03-03T03:43:38;100555.78;;;7.27;52.89
15678;BME280;7939;50.814;6.368;2023-03-03T03:46:06;100558.34;;;7.29;53.86
15678;BME280;7939;50.814;6.368;2023-03-03T03:48:33;100560.19;;;7.35;52.60
15678;BME280;7939;50.814;6.368;2023-03-03T03:50:59;100560.19;;;7.35;52.81
15678;BME280;7939;50.814;6.368;2023-03-03T03:53:27;100566.13;;;7.35;52.80
15678;BME280;7939;50.814;6.368;2023-03-03T03:55:54;100574.53;;;7.31;52.67
15678;BME280;7939;50.814;6.368;2023-03-03T03:58:20;100580.22;;;7.22;52.83
15678;BME280;7939;50.814;6.368;2023-03-03T04:00:47;100580.34;;;7.27;52.49
15678;BME280;7939;50.814;6.368;2023-03-03T04:03:14;100585.22;;;7.19;53.36
15678;BME280;7939;50.814;6.368;2023-03-03T04:05:40;100589.78;;;7.31;53.15
15678;BME280;7939;50.814;6.368;2023-03-03T04:08:07;100592.38;;;7.33;53.27
15678;BME280;7939;50.814;6.368;2023-03-03T04:10:35;100593.84;;;7.24;52.95
15678;BME280;7939;50.814;6.368;2023-03-03T04:13:02;100586.31;;;7.29;53.03
15678;BME280;7939;50.814;6.368;2023-03-03T04:15:29;100587.25;;;7.31;53.48
15678;BME280;7939;50.814;6.368;2023-03-03T04:17:56;100595.75;;;7.33;53.55
15678;BME280;7939;50.814;6.368;2023-03-03T04:20:22;100585.41;;;7.25;54.22
15678;BME280;7939;50.814;6.368;2023-03-03T04:22:49;100580.47;;;7.32;52.79
15678;BME280;7939;50.814;6.368;2023-03-03T04:25:16;100581.38;;;7.34;53.19
15678;BME280;7939;50.814;6.368;2023-03-03T04:27:44;100577.97;;;7.33;53.45
15678;BME280;7939;50.814;6.368;2023-03-03T04:30:12;100583.91;;;7.34;52.73
15678;BME280;7939;50.814;6.368;2023-03-03T04:32:39;100583.06;;;7.33;53.22
15678;BME280;7939;50.814;6.368;2023-03-03T04:35:07;100579.59;;;7.29;53.53
15678;BME280;7939;50.814;6.368;2023-03-03T04:37:35;100587.06;;;7.23;53.02
15678;BME280;7939;50.814;6.368;2023-03-03T04:40:02;100582.66;;;7.18;53.36
15678;BME280;7939;50.814;6.368;2023-03-03T04:42:29;100576.94;;;7.26;54.03
15678;BME280;7939;50.814;6.368;2023-03-03T04:44:56;100580.44;;;7.30;54.04
15678;BME280;7939;50.814;6.368;2023-03-03T04:47:24;100581.22;;;7.29;53.19
15678;BME280;7939;50.814;6.368;2023-03-03T04:49:51;100583.59;;;7.21;53.44
15678;BME280;7939;50.814;6.368;2023-03-03T04:52:18;100582.00;;;7.25;53.98
15678;BME280;7939;50.814;6.368;2023-03-03T04:54:44;100583.34;;;7.12;53.55
15678;BME280;7939;50.814;6.368;2023-03-03T04:57:11;100590.78;;;7.05;53.91
15678;BME280;7939;50.814;6.368;2023-03-03T04:59:37;100597.00;;;7.16;54.09
15678;BME280;7939;50.814;6.368;2023-03-03T05:02:05;100592.91;;;7.21;54.10
15678;BME280;7939;50.814;6.368;2023-03-03T05:04:32;100601.44;;;7.23;53.67
15678;BME280;7939;50.814;6.368;2023-03-03T05:06:58;100590.38;;;7.22;54.28
15678;BME280;7939;50.814;6.368;2023-03-03T05:09:25;100604.06;;;7.26;53.78
15678;BME280;7939;50.814;6.368;2023-03-03T05:11:52;100611.69;;;7.26;53.80
15678;BME280;7939;50.814;6.368;2023-03-03T05:14:19;100615.00;;;7.23;54.15
15678;BME280;7939;50.814;6.368;2023-03-03T05:16:45;100615.69;;;7.18;53.74
15678;BME280;7939;50.814;6.368;2023-03-03T05:19:13;100619.81;;;7.14;54.47
15678;BME280;7939;50.814;6.368;2023-03-03T05:21:40;100616.28;;;7.09;53.81
15678;BME280;7939;50.814;6.368;2023-03-03T05:24:07;100620.72;;;7.16;53.62
15678;BME280;7939;50.814;6.368;2023-03-03T05:26:34;100619.97;;;7.19;54.01
15678;BME280;7939;50.814;6.368;2023-03-03T05:29:02;100625.00;;;7.17;53.96
15678;BME280;7939;50.814;6.368;2023-03-03T05:31:29;100626.56;;;7.12;53.56
15678;BME280;7939;50.814;6.368;2023-03-03T05:33:56;100613.81;;;7.11;53.93
15678;BME280;7939;50.814;6.368;2023-03-03T05:36:24;100619.06;;;7.17;53.91
15678;BME280;7939;50.814;6.368;2023-03-03T05:38:51;100614.06;;;7.20;54.01
15678;BME280;7939;50.814;6.368;2023-03-03T05:41:17;100625.94;;;7.21;53.59
15678;BME280;7939;50.814;6.368;2023-03-03T05:43:44;100629.06;;;7.11;54.47
15678;BME280;7939;50.814;6.368;2023-03-03T05:46:11;100622.78;;;6.98;54.02
15678;BME280;7939;50.814;6.368;2023-03-03T05:48:37;100630.72;;;7.10;54.01
15678;BME280;7939;50.814;6.368;2023-03-03T05:51:04;100624.84;;;7.11;54.87
15678;BME280;7939;50.814;6.368;2023-03-03T05:53:33;100624.75;;;7.08;53.59
15678;BME280;7939;50.814;6.368;2023-03-03T05:55:59;100622.88;;;7.02;55.27
15678;BME280;7939;50.814;6.368;2023-03-03T05:58:26;100623.00;;;7.06;53.98
15678;BME280;7939;50.814;6.368;2023-03-03T06:00:53;100614.38;;;7.00;54.12
15678;BME280;7939;50.814;6.368;2023-03-03T06:03:19;100618.84;;;7.09;54.88
15678;BME280;7939;50.814;6.368;2023-03-03T06:05:46;100630.50;;;7.02;54.47
15678;BME280;7939;50.814;6.368;2023-03-03T06:08:13;100628.09;;;7.07;54.68
15678;BME280;7939;50.814;6.368;2023-03-03T06:10:41;100625.59;;;7.09;54.72
15678;BME280;7939;50.814;6.368;2023-03-03T06:13:07;100630.31;;;6.95;55.13
15678;BME280;7939;50.814;6.368;2023-03-03T06:15:34;100631.47;;;6.76;55.36
15678;BME280;7939;50.814;6.368;2023-03-03T06:18:00;100639.78;;;7.00;55.30
15678;BME280;7939;50.814;6.368;2023-03-03T06:20:27;100636.41;;;7.01;54.85
15678;BME280;7939;50.814;6.368;2023-03-03T06:22:54;100645.94;;;7.09;54.32
15678;BME280;7939;50.814;6.368;2023-03-03T06:25:20;100642.50;;;7.07;54.95
15678;BME280;7939;50.814;6.368;2023-03-03T06:27:49;100638.03;;;6.98;55.01
15678;BME280;7939;50.814;6.368;2023-03-03T06:30:15;100644.19;;;7.06;55.18
15678;BME280;7939;50.814;6.368;2023-03-03T06:32:43;100646.75;;;7.08;54.27
15678;BME280;7939;50.814;6.368;2023-03-03T06:35:10;100638.25;;;7.06;54.16
15678;BME280;7939;50.814;6.368;2023-03-03T06:37:37;100637.69;;;6.86;54.96
15678;BME280;7939;50.814;6.368;2023-03-03T06:40:05;100640.03;;;6.80;55.80
15678;BME280;7939;50.814;6.368;2023-03-03T06:42:32;100646.34;;;6.92;55.47
15678;BME280;7939;50.814;6.368;2023-03-03T06:44:59;100658.97;;;6.91;54.76
15678;BME280;7939;50.814;6.368;2023-03-03T06:47:26;100660.53;;;6.86;54.91
15678;BME280;7939;50.814;6.368;2023-03-03T06:49:53;100656.97;;;6.79;55.80
15678;BME280;7939;50.814;6.368;2023-03-03T06:52:22;100658.34;;;6.98;55.05
15678;BME280;7939;50.814;6.368;2023-03-03T06:54:53;100657.44;;;6.96;55.37
15678;BME280;7939;50.814;6.368;2023-03-03T06:57:25;100663.63;;;7.04;54.61
15678;BME280;7939;50.814;6.368;2023-03-03T06:59:54;100655.16;;;7.05;54.20
15678;BME280;7939;50.814;6.368;2023-03-03T07:02:23;100662.34;;;6.90;55.17
15678;BME280;7939;50.814;6.368;2023-03-03T07:04:52;100672.50;;;6.90;55.27
15678;BME280;7939;50.814;6.368;2023-03-03T07:07:22;100667.31;;;6.85;55.54
15678;BME280;7939;50.814;6.368;2023-03-03T07:09:50;100672.59;;;6.93;55.41
15678;BME280;7939;50.814;6.368;2023-03-03T07:12:19;100685.31;;;6.93;55.54
15678;BME280;7939;50.814;6.368;2023-03-03T07:14:48;100686.31;;;6.98;55.23
15678;BME280;7939;50.814;6.368;2023-03-03T07:17:20;100693.28;;;6.76;55.72
15678;BME280;7939;50.814;6.368;2023-03-03T07:19:50;100702.13;;;6.61;55.53
15678;BME280;7939;50.814;6.368;2023-03-03T07:22:18;100711.88;;;6.75;55.47
15678;BME280;7939;50.814;6.368;2023-03-03T07:24:48;100707.06;;;6.85;55.60
15678;BME280;7939;50.814;6.368;2023-03-03T07:27:19;100708.69;;;6.83;55.83
15678;BME280;7939;50.814;6.368;2023-03-03T07:29:49;100712.66;;;6.73;56.06
15678;BME280;7939;50.814;6.368;2023-03-03T07:32:23;100709.66;;;6.86;55.69
15678;BME280;7939;50.814;6.368;2023-03-03T07:34:54;100715.66;;;6.88;55.64
15678;BME280;7939;50.814;6.368;2023-03-03T07:37:28;100717.00;;;6.77;55.05
15678;BME280;7939;50.814;6.368;2023-03-03T07:39:55;100720.03;;;6.92;54.62
15678;BME280;7939;50.814;6.368;2023-03-03T07:42:23;100719.88;;;6.88;55.56
15678;BME280;7939;50.814;6.368;2023-03-03T07:44:53;100737.13;;;6.71;55.99
15678;BME280;7939;50.814;6.368;2023-03-03T07:47:23;100733.91;;;6.76;56.08
15678;BME280;7939;50.814;6.368;2023-03-03T07:49:51;100738.97;;;6.75;55.91
15678;BME280;7939;50.814;6.368;2023-03-03T07:52:28;100736.84;;;6.89;55.25
15678;BME280;7939;50.814;6.368;2023-03-03T07:54:58;100739.03;;;6.78;55.24
15678;BME280;7939;50.814;6.368;2023-03-03T07:57:27;100736.41;;;6.75;55.50
15678;BME280;7939;50.814;6.368;2023-03-03T08:00:00;100737.66;;;6.88;55.41
15678;BME280;7939;50.814;6.368;2023-03-03T08:02:36;100743.75;;;6.93;54.91
15678;BME280;7939;50.814;6.368;2023-03-03T08:05:23;100749.19;;;6.78;55.13
15678;BME280;7939;50.814;6.368;2023-03-03T08:07:54;100745.88;;;6.79;55.09
15678;BME280;7939;50.814;6.368;2023-03-03T08:10:34;100745.56;;;6.70;55.62
15678;BME280;7939;50.814;6.368;2023-03-03T08:13:08;100748.69;;;6.88;55.40
15678;BME280;7939;50.814;6.368;2023-03-03T08:15:40;100754.00;;;6.96;55.42
15678;BME280;7939;50.814;6.368;2023-03-03T08:18:23;100757.56;;;6.74;55.30
15678;BME280;7939;50.814;6.368;2023-03-03T08:20:52;100745.88;;;6.79;55.95
15678;BME280;7939;50.814;6.368;2023-03-03T08:23:21;100754.72;;;6.92;55.27
15678;BME280;7939;50.814;6.368;2023-03-03T08:25:49;100749.84;;;6.98;54.79
15678;BME280;7939;50.814;6.368;2023-03-03T08:28:16;100759.19;;;6.99;55.13
15678;BME280;7939;50.814;6.368;2023-03-03T08:30:45;100761.31;;;6.85;56.05
15678;BME280;7939;50.814;6.368;2023-03-03T08:33:13;100763.84;;;6.85;55.54
15678;BME280;7939;50.814;6.368;2023-03-03T08:35:40;100759.03;;;6.94;55.12
15678;BME280;7939;50.814;6.368;2023-03-03T08:38:07;100768.28;;;6.92;54.87
15678;BME280;7939;50.814;6.368;2023-03-03T08:40:36;100770.56;;;6.85;55.61
15678;BME280;7939;50.814;6.368;2023-03-03T08:43:03;100771.28;;;6.79;55.62
15678;BME280;7939;50.814;6.368;2023-03-03T08:45:31;100766.50;;;6.90;56.00
15678;BME280;7939;50.814;6.368;2023-03-03T08:47:59;100766.38;;;6.85;55.11
15678;BME280;7939;50.814;6.368;2023-03-03T08:50:28;100772.03;;;6.76;55.82
15678;BME280;7939;50.814;6.368;2023-03-03T08:52:55;100771.31;;;6.81;55.44
15678;BME280;7939;50.814;6.368;2023-03-03T08:55:22;100779.78;;;6.81;56.24
15678;BME280;7939;50.814;6.368;2023-03-03T08:57:50;100780.81;;;6.86;55.12
15678;BME280;7939;50.814;6.368;2023-03-03T09:00:17;100783.97;;;6.79;55.79
15678;BME280;7939;50.814;6.368;2023-03-03T09:02:45;100777.53;;;6.90;55.65
15678;BME280;7939;50.814;6.368;2023-03-03T09:05:13;100786.59;;;6.82;55.41
15678;BME280;7939;50.814;6.368;2023-03-03T09:07:40;100800.75;;;6.74;55.17
15678;BME280;7939;50.814;6.368;2023-03-03T09:10:08;100799.38;;;6.58;55.56
15678;BME280;7939;50.814;6.368;2023-03-03T09:12:37;100807.59;;;6.76;56.16
15678;BME280;7939;50.814;6.368;2023-03-03T09:15:17;100816.09;;;6.79;55.34
15678;BME280;7939;50.814;6.368;2023-03-03T09:17:45;100819.47;;;6.78;55.10
15678;BME280;7939;50.814;6.368;2023-03-03T09:20:33;100814.59;;;6.33;57.08
15678;BME280;7939;50.814;6.368;2023-03-03T09:23:27;100822.22;;;6.58;56.68
15678;BME280;7939;50.814;6.368;2023-03-03T09:25:54;100821.94;;;6.74;55.37
15678;BME280;7939;50.814;6.368;2023-03-03T09:28:23;100814.47;;;6.79;55.35
15678;BME280;7939;50.814;6.368;2023-03-03T09:30:53;100820.41;;;6.80;55.26
15678;BME280;7939;50.814;6.368;2023-03-03T09:33:24;100818.81;;;6.83;55.94
15678;BME280;7939;50.814;6.368;2023-03-03T09:35:53;100825.56;;;6.83;55.13
15678;BME280;7939;50.814;6.368;2023-03-03T09:38:27;100826.59;;;6.62;55.25
15678;BME280;7939;50.814;6.368;2023-03-03T09:41:13;100822.88;;;6.78;55.18
15678;BME280;7939;50.814;6.368;2023-03-03T09:43:51;100823.03;;;6.83;55.24
15678;BME280;7939;50.814;6.368;2023-03-03T09:46:32;100824.94;;;6.90;55.86
15678;BME280;7939;50.814;6.368;2023-03-03T09:49:14;100831.81;;;6.92;55.03
15678;BME280;7939;50.814;6.368;2023-03-03T09:52:02;100830.56;;;6.80;56.07
15678;BME280;7939;50.814;6.368;2023-03-03T09:54:45;100823.06;;;6.84;55.60
15678;BME280;7939;50.814;6.368;2023-03-03T09:57:16;100822.31;;;6.87;55.13
15678;BME280;7939;50.814;6.368;2023-03-03T10:00:02;100825.59;;;6.84;55.11
15678;BME280;7939;50.814;6.368;2023-03-03T10:02:42;100826.16;;;6.74;55.73
15678;BME280;7939;50.814;6.368;2023-03-03T10:05:27;100818.84;;;6.85;55.14
15678;BME280;7939;50.814;6.368;2023-03-03T10:08:05;100825.69;;;6.86;54.97
15678;BME280;7939;50.814;6.368;2023-03-03T10:10:44;100825.47;;;6.80;55.76
15678;BME280;7939;50.814;6.368;2023-03-03T10:13:22;100827.25;;;6.82;55.43
15678;BME280;7939;50.814;6.368;2023-03-03T10:16:04;100836.69;;;6.86;55.10
15678;BME280;7939;50.814;6.368;2023-03-03T10:18:40;100834.19;;;6.88;56.06
15678;BME280;7939;50.814;6.368;2023-03-03T10:21:10;100839.44;;;6.92;55.13
15678;BME280;7939;50.814;6.368;2023-03-03T10:23:52;100840.97;;;6.87;55.71
15678;BME280;7939;50.814;6.368;2023-03-03T10:26:28;100844.97;;;6.81;55.10
15678;BME280;7939;50.814;6.368;2023-03-03T10:29:17;100842.72;;;6.90;55.70
15678;BME280;7939;50.814;6.368;2023-03-03T10:31:54;100848.47;;;6.59;55.35
15678;BME280;7939;50.814;6.368;2023-03-03T10:34:49;100856.75;;;6.79;55.91
15678;BME280;7939;50.814;6.368;2023-03-03T10:37:23;100856.66;;;6.75;55.69
15678;BME280;7939;50.814;6.368;2023-03-03T10:40:11;100850.47;;;6.42;56.09
15678;BME280;7939;50.814;6.368;2023-03-03T10:43:04;100840.00;;;6.58;55.97
15678;BME280;7939;50.814;6.368;2023-03-03T10:45:56;100852.16;;;6.67;56.51
15678;BME280;7939;50.814;6.368;2023-03-03T10:48:40;100848.84;;;6.69;55.48
15678;BME280;7939;50.814;6.368;2023-03-03T10:51:20;100857.72;;;6.82;55.38
15678;BME280;7939;50.814;6.368;2023-03-03T10:53:55;100852.81;;;6.87;55.94
15678;BME280;7939;50.814;6.368;2023-03-03T10:56:33;100847.84;;;6.91;55.25
15678;BME280;7939;50.814;6.368;2023-03-03T10:59:13;100837.75;;;6.93;55.82
15678;BME280;7939;50.814;6.368;2023-03-03T11:01:48;100855.44;;;6.90;55.92
15678;BME280;7939;50.814;6.368;2023-03-03T11:04:41;100848.66;;;6.90;55.29
15678;BME280;7939;50.814;6.368;2023-03-03T11:07:18;100847.06;;;6.92;55.21
15678;BME280;7939;50.814;6.368;2023-03-03T11:10:00;100839.03;;;6.80;55.22
15678;BME280;7939;50.814;6.368;2023-03-03T11:12:38;100849.91;;;6.76;56.06
15678;BME280;7939;50.814;6.368;2023-03-03T11:15:21;100841.78;;;6.86;56.06
15678;BME280;7939;50.814;6.368;2023-03-03T11:18:05;100850.69;;;6.73;55.49
15678;BME280;7939;50.814;6.368;2023-03-03T11:20:40;100852.50;;;6.78;56.15
15678;BME280;7939;50.814;6.368;2023-03-03T11:23:25;100846.88;;;6.86;55.35
15678;BME280;7939;50.814;6.368;2023-03-03T11:25:59;100848.53;;;6.86;56.02
15678;BME280;7939;50.814;6.368;2023-03-03T11:28:44;100846.38;;;6.72;56.13
15678;BME280;7939;50.814;6.368;2023-03-03T11:31:20;100855.31;;;6.85;55.03
15678;BME280;7939;50.814;6.368;2023-03-03T11:33:57;100852.06;;;6.91;55.24
15678;BME280;7939;50.814;6.368;2023-03-03T11:36:28;100856.47;;;6.96;55.18
15678;BME280;7939;50.814;6.368;2023-03-03T11:38:58;100843.03;;;6.99;54.94
15678;BME280;7939;50.814;6.368;2023-03-03T11:41:32;100852.69;;;6.84;55.27
15678;BME280;7939;50.814;6.368;2023-03-03T11:44:10;100849.69;;;6.95;55.50
15678;BME280;7939;50.814;6.368;2023-03-03T11:46:44;100838.84;;;7.01;55.14
15678;BME280;7939;50.814;6.368;2023-03-03T11:49:17;100836.47;;;7.06;55.52
15678;BME280;7939;50.814;6.368;2023-03-03T11:51:52;100838.22;;;7.08;55.61
15678;BME280;7939;50.814;6.368;2023-03-03T11:54:25;100836.59;;;7.10;55.15
15678;BME280;7939;50.814;6.368;2023-03-03T11:56:56;100839.19;;;7.12;55.32
15678;BME280;7939;50.814;6.368;2023-03-03T11:59:41;100834.13;;;7.12;55.46
15678;BME280;7939;50.814;6.368;2023-03-03T12:05:11;100832.31;;;7.09;56.07
15678;BME280;7939;50.814;6.368;2023-03-03T12:07:44;100830.72;;;7.11;55.18
15678;BME280;7939;50.814;6.368;2023-03-03T12:10:23;100829.06;;;7.13;55.79
15678;BME280;7939;50.814;6.368;2023-03-03T12:13:00;100830.75;;;7.13;55.15
15678;BME280;7939;50.814;6.368;2023-03-03T12:15:32;100821.41;;;7.12;54.77
15678;BME280;7939;50.814;6.368;2023-03-03T12:18:11;100827.22;;;7.09;55.80
15678;BME280;7939;50.814;6.368;2023-03-03T12:20:48;100823.94;;;7.12;54.99
15678;BME280;7939;50.814;6.368;2023-03-03T12:23:32;100822.06;;;7.06;55.30
15678;BME280;7939;50.814;6.368;2023-03-03T12:26:10;100819.53;;;7.06;54.75
15678;BME280;7939;50.814;6.368;2023-03-03T12:28:41;100823.38;;;6.93;55.80
15678;BME280;7939;50.814;6.368;2023-03-03T12:31:24;100815.91;;;6.98;55.26
15678;BME280;7939;50.814;6.368;2023-03-03T12:33:54;100810.19;;;7.05;55.93
15678;BME280;7939;50.814;6.368;2023-03-03T12:39:42;100805.41;;;7.16;55.77
15678;BME280;7939;50.814;6.368;2023-03-03T12:42:19;100808.91;;;7.19;55.45
15678;BME280;7939;50.814;6.368;2023-03-03T12:44:54;100802.16;;;7.20;55.88
15678;BME280;7939;50.814;6.368;2023-03-03T12:47:28;100800.59;;;7.23;55.87
15678;BME280;7939;50.814;6.368;2023-03-03T12:50:05;100799.38;;;7.12;55.74
15678;BME280;7939;50.814;6.368;2023-03-03T12:52:45;100798.78;;;7.21;54.67
15678;BME280;7939;50.814;6.368;2023-03-03T12:55:21;100802.88;;;7.16;55.24
15678;BME280;7939;50.814;6.368;2023-03-03T12:57:59;100799.66;;;7.21;55.15
15678;BME280;7939;50.814;6.368;2023-03-03T13:00:31;100798.78;;;7.21;54.99
15678;BME280;7939;50.814;6.368;2023-03-03T13:03:08;100803.06;;;7.22;55.48
15678;BME280;7939;50.814;6.368;2023-03-03T13:05:50;100803.16;;;7.25;55.18
15678;BME280;7939;50.814;6.368;2023-03-03T13:08:31;100801.19;;;7.16;54.88
15678;BME280;7939;50.814;6.368;2023-03-03T13:11:16;100799.56;;;7.18;55.15
15678;BME280;7939;50.814;6.368;2023-03-03T13:13:50;100794.63;;;7.23;55.00
15678;BME280;7939;50.814;6.368;2023-03-03T13:16:21;100792.41;;;7.05;55.68
15678;BME280;7939;50.814;6.368;2023-03-03T13:18:56;100798.28;;;6.77;55.28
15678;BME280;7939;50.814;6.368;2023-03-03T13:21:26;100794.78;;;7.00;55.25
15678;BME280;7939;50.814;6.368;2023-03-03T13:24:00;100797.84;;;6.90;54.85
15678;BME280;7939;50.814;6.368;2023-03-03T13:26:34;100793.63;;;6.91;56.06
15678;BME280;7939;50.814;6.368;2023-03-03T13:29:10;100794.78;;;7.00;56.29
15678;BME280;7939;50.814;6.368;2023-03-03T13:31:45;100794.19;;;7.09;55.10
15678;BME280;7939;50.814;6.368;2023-03-03T13:34:22;100793.94;;;7.00;55.60
15678;BME280;7939;50.814;6.368;2023-03-03T13:36:53;100793.47;;;7.13;55.34